LFRG/DOL METAR and TAF weather

Enter ICAO airport designator
Station Type Date Time Source
LFRG METAR 2019/04/26 03:30 UTC NOAA

LFRG 260330Z AUTO 17008KT CAVOK 08/05 Q1009


Station Type Date Time Source
LFRG Decoded METAR 2019/04/26 03:30 UTC NOAA

Station name not available
Apr 25, 2019 - 11:30 PM EDT / 2019.04.26 0330 UTC
Wind: from the S (170 degrees) at 9 MPH (8 KT):0
Visibility: greater than 7 mile(s):0
Temperature: 46 F (8 C)
Dew Point: 41 F (5 C)
Relative Humidity: 81%
Pressure (altimeter): 29.80 in. Hg (1009 hPa)
ob: LFRG 260330Z AUTO 17008KT CAVOK 08/05 Q1009
cycle: 3

Station Type Date Time Source
LFRG TAF 2014/12/22 18:42 UTC NOAA

TAF
AMD TAF
AMD LFRG 221837Z 2218/2221 25015KT 9999 OVC015
TEMPO 2218/2221 BKN007 PROB30
TEMPO 2218/2221 25015G25KT 4000 DZ BKN003

Example: see airport list